Time;durP1;ratioP1;P1;durP2;ratioP2;P2;SDS_P1;SDS_P2;PMS_P1;PMS_P2;Temp;Humidity;BMP_temperature;BMP_pressure;BME280_temperature;BME280_humidity;BME280_pressure;Samples;Min_cycle;Max_cycle;Signal;HPM_P1;HPM_P2
2022/06/02 00:01:11;;;;;;;;;10.00;9.00;;;;;9.37;71.19;100160.59;5059211;28;8834;-64
2022/06/02 00:03:39;;;;;;;;;11.00;9.50;;;;;9.34;70.76;100160.78;5059159;28;8873;-64
2022/06/02 00:06:07;;;;;;;;;8.00;7.25;;;;;9.33;71.09;100167.06;5059058;28;8860;-65
2022/06/02 00:08:35;;;;;;;;;11.50;9.00;;;;;9.32;71.03;100165.38;5059337;28;8864;-64
2022/06/02 00:11:02;;;;;;;;;7.50;7.50;;;;;9.32;71.24;100160.06;5058730;28;9545;-64
2022/06/02 00:13:30;;;;;;;;;8.75;8.75;;;;;9.32;71.19;100165.38;5058704;28;8858;-64
2022/06/02 00:15:57;;;;;;;;;8.00;6.75;;;;;9.31;71.00;100163.69;5058831;28;8838;-64
2022/06/02 00:18:25;;;;;;;;;9.00;7.50;;;;;9.31;70.92;100169.00;5058642;28;8915;-64
2022/06/02 00:20:53;;;;;;;;;9.50;9.00;;;;;9.29;71.06;100168.25;5047686;28;8816;-64
2022/06/02 00:23:21;;;;;;;;;9.00;7.00;;;;;9.28;71.33;100179.81;5038579;28;8875;-64
2022/06/02 00:25:49;;;;;;;;;8.50;6.75;;;;;9.23;71.22;100171.34;5038505;28;8840;-63
2022/06/02 00:28:17;;;;;;;;;10.00;9.20;;;;;9.20;71.14;100176.03;5047661;28;8993;-63
2022/06/02 00:30:45;;;;;;;;;9.80;9.40;;;;;9.16;71.13;100179.84;5058004;28;9545;-64
2022/06/02 00:33:13;;;;;;;;;8.00;7.00;;;;;9.13;71.70;100188.03;5058502;28;8854;-64
2022/06/02 00:35:40;;;;;;;;;10.00;9.00;;;;;9.08;71.50;100172.41;5058558;28;9508;-64
2022/06/02 00:38:08;;;;;;;;;12.80;10.40;;;;;9.03;71.85;100177.19;5058825;28;8845;-64
2022/06/02 00:40:37;;;;;;;;;12.40;10.60;;;;;8.98;71.57;100176.66;5058060;28;8818;-63
2022/06/02 00:43:05;;;;;;;;;13.40;11.80;;;;;8.93;72.25;100177.94;5058003;28;8881;-63
2022/06/02 00:45:32;;;;;;;;;3.40;3.40;;;;;8.87;71.74;100176.56;5058030;28;8834;-63
2022/06/02 00:48:00;;;;;;;;;9.80;9.60;;;;;8.80;71.86;100180.59;5058286;28;8834;-63
2022/06/02 00:50:28;;;;;;;;;9.00;6.80;;;;;8.77;72.35;100185.25;5058228;28;8830;-64
2022/06/02 00:52:56;;;;;;;;;9.60;9.20;;;;;8.79;72.20;100192.16;5057764;28;8849;-63
2022/06/02 00:58:09;;;;;;;;;7.00;7.00;;;;;8.88;71.84;100191.53;5050295;28;8816;-64
2022/06/02 01:00:37;;;;;;;;;11.20;9.60;;;;;8.91;72.27;100186.03;5037856;28;8848;-64
2022/06/02 01:03:05;;;;;;;;;5.00;5.00;;;;;8.85;71.89;100197.06;5038079;28;8824;-66
2022/06/02 01:05:32;;;;;;;;;6.00;6.00;;;;;8.78;72.05;100201.09;5038099;28;8867;-64
2022/06/02 01:08:00;;;;;;;;;7.00;6.50;;;;;8.70;72.06;100203.41;5037657;28;8833;-64
2022/06/02 01:10:28;;;;;;;;;7.00;6.50;;;;;8.64;72.54;100197.66;5037846;28;9537;-64
2022/06/02 01:12:56;;;;;;;;;6.00;4.80;;;;;8.57;72.28;100197.22;5037458;28;8875;-64
2022/06/02 01:15:23;;;;;;;;;8.20;7.00;;;;;8.53;72.46;100205.50;5037506;28;8842;-64
2022/06/02 01:17:51;;;;;;;;;8.80;8.60;;;;;8.46;72.48;100207.72;5037838;28;8832;-65
2022/06/02 01:20:19;;;;;;;;;5.60;5.60;;;;;8.39;72.53;100202.91;5037680;28;8847;-64
2022/06/02 01:22:47;;;;;;;;;10.00;9.20;;;;;8.36;72.61;100203.97;5037269;28;8840;-64
2022/06/02 01:25:14;;;;;;;;;9.20;9.20;;;;;8.32;72.91;100205.13;5037835;28;8844;-64
2022/06/02 01:27:43;;;;;;;;;7.80;6.40;;;;;8.32;72.66;100209.56;5040686;28;8834;-64
2022/06/02 01:30:11;;;;;;;;;10.40;9.80;;;;;8.33;72.52;100211.28;5057412;28;8842;-63
2022/06/02 01:32:38;;;;;;;;;10.00;9.80;;;;;8.32;72.62;100210.44;5057633;28;8848;-63
2022/06/02 01:35:06;;;;;;;;;4.00;3.60;;;;;8.30;73.07;100207.00;5057734;28;8830;-64
2022/06/02 01:37:34;;;;;;;;;9.80;8.20;;;;;8.30;72.58;100214.16;5057587;28;8842;-64
2022/06/02 01:40:02;;;;;;;;;10.00;9.60;;;;;8.29;72.35;100215.94;5057398;28;8834;-64
2022/06/02 01:42:29;;;;;;;;;9.00;6.60;;;;;8.27;72.52;100212.53;5056788;28;8830;-63
2022/06/02 01:44:58;;;;;;;;;9.40;9.00;;;;;8.28;72.69;100213.41;5057381;28;8839;-64
2022/06/02 01:47:25;;;;;;;;;10.80;10.00;;;;;8.25;72.46;100211.78;5056918;28;8827;-63
2022/06/02 01:49:53;;;;;;;;;12.00;11.20;;;;;8.24;72.48;100204.78;5056983;28;8838;-64
2022/06/02 01:52:21;;;;;;;;;11.00;9.40;;;;;8.24;72.47;100218.06;5056336;28;8838;-63
2022/06/02 01:54:50;;;;;;;;;8.20;8.20;;;;;8.25;72.06;100211.78;5040373;28;8967;-64
2022/06/02 01:57:18;;;;;;;;;7.00;7.00;;;;;8.26;72.49;100210.84;5036869;28;8851;-63
2022/06/02 01:59:46;;;;;;;;;9.20;9.00;;;;;8.25;72.34;100211.78;5036647;28;8922;-64
2022/06/02 02:02:13;;;;;;;;;10.40;10.40;;;;;8.22;72.46;100214.63;5036880;28;8829;-64
2022/06/02 02:04:41;;;;;;;;;9.20;8.60;;;;;8.22;72.35;100219.09;5036895;28;9921;-63
2022/06/02 02:07:09;;;;;;;;;9.80;7.00;;;;;8.20;72.30;100219.19;5036737;28;8980;-63
2022/06/02 02:09:37;;;;;;;;;6.60;6.00;;;;;8.20;72.88;100232.47;5036800;28;8825;-64
2022/06/02 02:12:04;;;;;;;;;7.40;7.40;;;;;8.18;72.57;100226.38;5036156;28;8863;-64
2022/06/02 02:14:32;;;;;;;;;7.80;7.80;;;;;8.15;72.31;100234.50;5036392;28;8857;-63
2022/06/02 02:17:00;;;;;;;;;11.20;9.00;;;;;8.11;72.16;100229.50;5036766;28;8930;-63
2022/06/02 02:19:27;;;;;;;;;9.00;7.80;;;;;8.08;72.46;100230.59;5035935;28;9514;-64
2022/06/02 02:21:57;;;;;;;;;7.00;7.00;;;;;8.05;72.57;100224.63;5036539;28;8829;-63
2022/06/02 02:24:24;;;;;;;;;8.60;7.00;;;;;8.01;72.58;100226.63;5048684;28;8821;-63
2022/06/02 02:26:52;;;;;;;;;9.40;9.40;;;;;7.97;72.82;100233.06;5056428;28;9505;-63
2022/06/02 02:29:19;;;;;;;;;7.40;7.40;;;;;7.90;72.67;100234.41;5056717;28;8834;-65
2022/06/02 02:31:47;;;;;;;;;8.60;8.20;;;;;7.85;72.78;100231.19;5056385;28;8834;-63
2022/06/02 02:34:15;;;;;;;;;8.60;8.20;;;;;7.81;72.70;100231.50;5056187;28;8830;-64
2022/06/02 02:36:43;;;;;;;;;9.40;8.20;;;;;7.77;73.15;100233.47;5056223;28;8853;-64
2022/06/02 02:39:11;;;;;;;;;12.60;10.40;;;;;7.76;72.73;100236.25;5056081;28;8846;-64
2022/06/02 02:41:39;;;;;;;;;9.00;9.00;;;;;7.74;73.05;100230.16;5056100;28;8864;-63
2022/06/02 02:44:07;;;;;;;;;6.80;6.40;;;;;7.73;72.98;100233.78;5056050;28;9523;-64
2022/06/02 02:46:35;;;;;;;;;8.00;7.80;;;;;7.72;73.13;100243.53;5056570;28;8830;-64
2022/06/02 02:49:03;;;;;;;;;12.40;9.60;;;;;7.72;72.77;100244.50;5055713;28;8860;-63
2022/06/02 02:51:31;;;;;;;;;11.20;9.80;;;;;7.69;73.24;100226.97;5055823;28;8834;-64
2022/06/02 02:53:59;;;;;;;;;11.20;11.20;;;;;7.66;72.91;100237.75;5046084;28;8825;-64
2022/06/02 02:56:27;;;;;;;;;7.80;6.80;;;;;7.62;73.33;100236.25;5036185;28;8848;-63
2022/06/02 02:58:54;;;;;;;;;7.80;6.00;;;;;7.59;73.43;100236.44;5035601;28;8836;-63
2022/06/02 03:01:23;;;;;;;;;11.80;10.80;;;;;7.56;73.29;100231.34;5035346;28;8867;-64
2022/06/02 03:03:51;;;;;;;;;11.20;11.20;;;;;7.54;73.50;100237.69;5035722;28;8833;-63
2022/06/02 03:06:20;;;;;;;;;7.40;7.40;;;;;7.52;73.29;100242.22;5036071;28;8913;-63
2022/06/02 03:08:48;;;;;;;;;12.20;9.00;;;;;7.51;72.75;100240.53;5035168;28;8907;-63
2022/06/02 03:11:16;;;;;;;;;7.00;6.40;;;;;7.51;73.57;100249.31;5035513;28;8844;-63
2022/06/02 03:13:44;;;;;;;;;7.40;7.00;;;;;7.51;73.21;100254.63;5035287;28;9534;-63
2022/06/02 03:16:12;;;;;;;;;13.00;12.00;;;;;7.48;73.33;100253.94;5036358;28;8844;-63
2022/06/02 03:18:39;;;;;;;;;8.20;7.00;;;;;7.46;73.30;100255.84;5035689;28;8843;-63
2022/06/02 03:21:07;;;;;;;;;7.60;6.80;;;;;7.44;73.54;100260.41;5035401;28;8891;-63
2022/06/02 03:23:35;;;;;;;;;10.80;3.80;;;;;7.43;73.08;100264.00;5042607;28;8849;-63
2022/06/02 03:26:03;;;;;;;;;10.00;9.20;;;;;7.43;73.19;100261.34;5058405;28;8833;-63
2022/06/02 03:28:30;;;;;;;;;9.00;9.00;;;;;7.43;73.25;100261.34;5059625;28;8965;-63
2022/06/02 03:30:58;;;;;;;;;8.40;7.20;;;;;7.44;72.98;100265.69;5059329;28;8842;-63
2022/06/02 03:33:26;;;;;;;;;8.20;7.00;;;;;7.43;73.20;100261.34;5059632;28;8937;-63
2022/06/02 03:35:54;;;;;;;;;7.00;7.00;;;;;7.41;72.92;100268.53;5059351;28;8830;-63
2022/06/02 03:38:22;;;;;;;;;9.00;7.20;;;;;7.40;73.18;100274.78;5059431;28;8830;-63
2022/06/02 03:40:50;;;;;;;;;10.00;9.40;;;;;7.38;73.41;100268.72;5059329;28;8826;-63
2022/06/02 03:43:17;;;;;;;;;10.20;7.80;;;;;7.39;72.83;100275.72;5058963;28;8870;-63
2022/06/02 03:45:45;;;;;;;;;9.20;6.80;;;;;7.40;72.88;100272.13;5058816;28;8850;-64
2022/06/02 03:48:13;;;;;;;;;9.40;9.40;;;;;7.42;73.29;100284.34;5058127;28;8834;-64
2022/06/02 03:50:41;;;;;;;;;10.80;9.80;;;;;7.45;72.55;100288.59;5058959;28;8956;-63
2022/06/02 03:53:08;;;;;;;;;4.80;1.40;;;;;7.47;72.74;100289.34;5054758;28;8824;-64
2022/06/02 03:55:36;;;;;;;;;9.00;9.00;;;;;7.49;72.80;100292.78;5038968;28;8871;-64
2022/06/02 03:58:04;;;;;;;;;9.60;9.00;;;;;7.50;72.59;100289.19;5039039;28;8848;-64
2022/06/02 04:00:33;;;;;;;;;9.80;9.20;;;;;7.51;72.67;100290.88;5038749;28;8840;-64
2022/06/02 04:03:00;;;;;;;;;10.80;10.00;;;;;7.52;72.83;100290.78;5039192;28;8851;-63
2022/06/02 04:05:28;;;;;;;;;6.60;6.60;;;;;7.54;72.96;100301.28;5038800;28;9506;-64
2022/06/02 04:07:56;;;;;;;;;3.60;3.20;;;;;7.57;72.33;100296.63;5038457;28;8995;-64
2022/06/02 04:10:24;;;;;;;;;9.40;8.60;;;;;7.62;72.47;100299.00;5037912;28;8837;-64
2022/06/02 04:15:37;;;;;;;;;6.60;5.20;;;;;7.74;71.88;100304.38;5038326;28;8837;-64
2022/06/02 04:18:04;;;;;;;;;8.40;7.80;;;;;7.81;72.39;100311.88;5038146;28;8836;-63
2022/06/02 04:20:37;;;;;;;;;11.20;9.00;;;;;7.89;72.23;100309.59;5036981;28;8874;-63
2022/06/02 04:23:05;;;;;;;;;9.00;7.00;;;;;8.04;71.12;100308.63;5042745;28;8829;-64
2022/06/02 04:25:33;;;;;;;;;4.00;4.00;;;;;8.19;71.13;100310.34;5057525;28;9492;-63
2022/06/02 04:28:01;;;;;;;;;2.20;1.00;;;;;8.31;70.96;100321.97;5057445;28;8923;-64
2022/06/02 04:30:29;;;;;;;;;2.60;2.60;;;;;8.36;71.02;100323.38;5057162;28;8838;-63
2022/06/02 04:32:56;;;;;;;;;15.00;12.20;;;;;8.41;70.80;100329.22;5057637;28;8838;-64
2022/06/02 04:35:24;;;;;;;;;7.00;6.60;;;;;8.45;70.59;100328.06;5057530;28;8838;-63
2022/06/02 04:37:52;;;;;;;;;11.60;11.20;;;;;8.49;70.98;100326.06;5058169;28;8822;-64
2022/06/02 04:40:20;;;;;;;;;9.00;7.40;;;;;8.56;70.65;100322.06;5058387;28;8854;-63
2022/06/02 04:42:47;;;;;;;;;7.80;7.80;;;;;8.62;70.50;100325.19;5057637;28;8892;-63
2022/06/02 04:45:15;;;;;;;;;12.60;11.80;;;;;8.69;70.30;100325.63;5057959;28;8854;-63
2022/06/02 04:47:43;;;;;;;;;7.40;7.00;;;;;8.75;70.22;100327.88;5057473;28;8860;-64
2022/06/02 04:50:11;;;;;;;;;9.00;9.00;;;;;8.84;69.68;100329.94;5058011;28;8834;-63
2022/06/02 04:52:38;;;;;;;;;8.60;8.60;;;;;8.93;69.49;100335.47;5055278;28;8873;-63
2022/06/02 04:55:06;;;;;;;;;10.00;9.60;;;;;9.05;69.14;100337.31;5057088;28;8833;-63
2022/06/02 04:57:34;;;;;;;;;13.00;12.00;;;;;9.18;69.38;100338.19;5057626;28;8838;-64
2022/06/02 05:00:02;;;;;;;;;13.00;12.40;;;;;9.30;69.38;100345.34;5057209;28;8864;-64
2022/06/02 05:02:30;;;;;;;;;12.00;11.20;;;;;9.43;69.43;100340.88;5057448;28;8993;-64
2022/06/02 05:04:58;;;;;;;;;9.20;8.20;;;;;9.56;69.15;100344.38;5056772;28;9572;-65
2022/06/02 05:07:26;;;;;;;;;7.50;7.25;;;;;9.66;69.14;100340.13;5056667;28;8838;-63
2022/06/02 05:09:54;;;;;;;;;12.20;11.80;;;;;9.78;68.62;100352.59;5056465;28;8834;-63
2022/06/02 05:12:21;;;;;;;;;4.50;4.00;;;;;9.88;68.58;100350.97;5055637;28;8846;-64
2022/06/02 05:14:49;;;;;;;;;9.25;9.25;;;;;10.01;68.48;100357.13;5055277;28;8866;-63
2022/06/02 05:17:17;;;;;;;;;3.75;3.25;;;;;10.14;68.13;100347.38;5055561;28;8860;-64
2022/06/02 05:19:45;;;;;;;;;9.50;9.00;;;;;10.26;67.70;100357.13;5055257;28;8856;-63
2022/06/02 05:22:12;;;;;;;;;6.00;3.75;;;;;10.37;67.56;100359.88;5053163;28;8860;-63
2022/06/02 05:24:40;;;;;;;;;9.00;8.50;;;;;10.48;67.67;100359.94;5038091;28;8823;-64
2022/06/02 05:27:09;;;;;;;;;11.00;11.00;;;;;10.57;67.32;100363.75;5054139;28;8876;-64
2022/06/02 05:29:37;;;;;;;;;9.25;6.50;;;;;10.62;67.39;100370.44;5055649;28;8830;-64
2022/06/02 05:32:04;;;;;;;;;8.75;8.75;;;;;10.67;67.58;100365.63;5055507;28;8853;-64
2022/06/02 05:34:33;;;;;;;;;9.50;9.50;;;;;10.74;67.83;100366.03;5041227;28;8941;-64
2022/06/02 05:37:00;;;;;;;;;12.50;10.00;;;;;10.81;67.56;100372.59;5055148;28;8896;-64
2022/06/02 05:39:28;;;;;;;;;12.00;9.00;;;;;10.90;66.87;100372.78;5055487;28;8846;-64
2022/06/02 05:41:56;;;;;;;;;11.50;10.00;;;;;10.98;67.31;100373.06;5055204;28;8830;-64
2022/06/02 05:44:23;;;;;;;;;12.75;12.00;;;;;11.06;67.22;100372.50;5053729;28;8939;-64
2022/06/02 05:46:51;;;;;;;;;9.00;8.50;;;;;11.19;66.68;100370.59;5053402;28;8850;-65
2022/06/02 05:49:19;;;;;;;;;6.75;5.50;;;;;11.32;66.47;100377.56;5054755;28;8977;-65
2022/06/02 05:51:47;;;;;;;;;9.50;7.00;;;;;11.46;66.44;100369.34;5055054;28;8964;-64
2022/06/02 05:54:14;;;;;;;;;10.50;8.50;;;;;11.62;66.24;100379.75;5055212;28;8862;-64
2022/06/02 05:56:42;;;;;;;;;9.50;9.50;;;;;11.75;65.88;100368.00;5054510;28;8834;-65
2022/06/02 05:59:10;;;;;;;;;11.00;10.50;;;;;11.88;65.54;100366.09;5039276;28;8844;-64
2022/06/02 06:01:39;;;;;;;;;10.50;9.50;;;;;12.00;65.33;100363.28;5050771;28;8877;-64
2022/06/02 06:04:07;;;;;;;;;9.50;7.50;;;;;12.13;65.01;100366.69;5054547;28;8854;-64
2022/06/02 06:06:35;;;;;;;;;15.00;12.00;;;;;12.26;64.69;100347.88;5049265;28;8819;-64
2022/06/02 06:09:03;;;;;;;;;16.00;15.00;;;;;12.38;64.91;100354.94;5046073;28;8830;-64
2022/06/02 06:11:31;;;;;;;;;13.00;12.25;;;;;12.51;64.43;100358.28;5040200;28;9556;-64
2022/06/02 06:13:59;;;;;;;;;11.00;9.25;;;;;12.63;64.52;100357.31;5044236;28;8839;-65
2022/06/02 06:16:27;;;;;;;;;12.75;11.50;;;;;12.74;64.98;100362.59;5054613;28;8846;-64
2022/06/02 06:18:55;;;;;;;;;14.50;11.00;;;;;12.84;64.28;100359.06;5055665;28;8838;-65
2022/06/02 06:21:23;;;;;;;;;16.75;15.00;;;;;12.98;64.08;100357.97;5055184;28;8838;-64
2022/06/02 06:23:50;;;;;;;;;13.00;12.25;;;;;13.09;64.22;100352.56;5055178;28;8874;-64
2022/06/02 06:26:18;;;;;;;;;12.00;10.00;;;;;13.21;63.70;100363.09;5054792;28;8838;-64
2022/06/02 06:28:46;;;;;;;;;8.00;7.00;;;;;13.31;63.81;100363.16;5054198;28;8830;-64
2022/06/02 06:31:15;;;;;;;;;14.50;13.75;;;;;13.41;63.67;100369.44;5048336;28;8839;-64
2022/06/02 06:33:42;;;;;;;;;15.50;13.50;;;;;13.51;64.03;100367.69;5043263;28;8850;-64
2022/06/02 06:36:11;;;;;;;;;18.75;16.75;;;;;13.64;63.26;100365.66;5043775;28;8868;-64
2022/06/02 06:38:38;;;;;;;;;12.00;10.00;;;;;13.76;63.42;100370.81;5048426;28;8864;-65
2022/06/02 06:41:06;;;;;;;;;16.25;14.25;;;;;13.85;63.28;100369.16;5034282;28;8922;-64
2022/06/02 06:43:34;;;;;;;;;13.50;12.00;;;;;13.95;62.79;100365.56;5053727;28;8854;-64
2022/06/02 06:46:02;;;;;;;;;15.50;14.50;;;;;14.04;63.04;100367.44;5036381;28;8844;-64
2022/06/02 06:48:30;;;;;;;;;14.00;12.25;;;;;14.12;62.58;100369.47;5037869;28;8854;-64
2022/06/02 06:50:58;;;;;;;;;14.00;12.00;;;;;14.21;62.32;100372.19;5034436;28;8858;-64
2022/06/02 06:53:26;;;;;;;;;13.50;13.00;;;;;14.32;62.65;100369.44;5034399;28;9533;-64
2022/06/02 06:55:54;;;;;;;;;13.00;11.50;;;;;14.45;62.35;100363.84;5034011;28;8829;-64
2022/06/02 06:58:22;;;;;;;;;10.50;10.50;;;;;14.59;62.25;100371.50;5034428;28;8870;-64
2022/06/02 07:00:51;;;;;;;;;7.00;7.00;;;;;14.71;61.63;100367.75;5035107;28;8820;-64
2022/06/02 07:03:18;;;;;;;;;12.00;10.00;;;;;14.78;61.68;100371.53;5038546;28;8833;-64
2022/06/02 07:05:46;;;;;;;;;13.00;9.00;;;;;14.87;61.74;100376.09;5054398;28;8927;-65
2022/06/02 07:08:14;;;;;;;;;7.50;7.50;;;;;14.97;61.84;100372.44;5054757;28;8838;-65
2022/06/02 07:10:42;;;;;;;;;10.00;8.00;;;;;15.12;61.60;100375.56;5054276;28;8846;-64
2022/06/02 07:13:09;;;;;;;;;12.00;11.50;;;;;15.22;61.35;100381.75;5054124;28;8889;-65
2022/06/02 07:15:39;;;;;;;;;10.25;7.50;;;;;15.31;61.33;100380.94;5054292;28;8858;-65
2022/06/02 07:18:07;;;;;;;;;8.25;8.25;;;;;15.43;61.15;100386.06;5051941;28;8968;-65
2022/06/02 07:20:36;;;;;;;;;7.50;6.75;;;;;15.53;60.88;100386.88;5053540;28;8834;-65
2022/06/02 07:23:03;;;;;;;;;12.50;11.50;;;;;15.63;60.38;100398.44;5053235;28;9639;-64
2022/06/02 07:25:31;;;;;;;;;13.50;12.00;;;;;15.73;60.38;100388.56;5052747;28;8834;-64
2022/06/02 07:28:00;;;;;;;;;10.50;10.50;;;;;15.83;60.71;100388.53;5052516;28;8869;-65
2022/06/02 07:30:28;;;;;;;;;9.50;8.50;;;;;15.97;60.58;100396.13;5053181;28;8842;-65
2022/06/02 07:32:56;;;;;;;;;14.00;12.00;;;;;16.12;59.92;100400.91;5047505;28;8828;-65
2022/06/02 07:35:23;;;;;;;;;4.50;4.00;;;;;16.26;59.64;100406.66;5044444;28;8970;-65
2022/06/02 07:37:52;;;;;;;;;15.00;12.50;;;;;16.34;59.59;100406.75;5037898;28;8844;-65
2022/06/02 07:40:20;;;;;;;;;9.75;9.25;;;;;16.39;59.60;100409.03;5034029;28;8832;-65
2022/06/02 07:42:47;;;;;;;;;7.00;7.00;;;;;16.45;59.60;100409.31;5034250;28;8990;-65
2022/06/02 07:45:15;;;;;;;;;10.25;8.50;;;;;16.57;59.79;100416.19;5033605;28;8870;-65
2022/06/02 07:47:43;;;;;;;;;7.00;7.00;;;;;16.69;59.36;100414.16;5034047;28;8840;-65
2022/06/02 07:50:11;;;;;;;;;8.00;8.00;;;;;16.74;59.45;100411.88;5034717;28;8856;-65
2022/06/02 07:52:38;;;;;;;;;7.50;6.75;;;;;16.79;59.43;100407.72;5034502;28;8829;-65
2022/06/02 07:55:06;;;;;;;;;4.50;4.00;;;;;16.86;59.36;100408.81;5033957;28;8874;-65
2022/06/02 07:57:34;;;;;;;;;9.50;7.25;;;;;16.93;59.07;100407.22;5034201;28;8845;-65
2022/06/02 08:00:02;;;;;;;;;8.00;6.75;;;;;17.03;59.05;100404.47;5034491;28;8852;-65
2022/06/02 08:02:30;;;;;;;;;7.00;7.00;;;;;17.15;58.66;100417.56;5032380;28;8843;-66
2022/06/02 08:05:02;;;;;;;;;6.00;6.00;;;;;17.28;58.29;100412.66;5031587;28;8833;-65
2022/06/02 08:07:33;;;;;;;;;8.60;6.40;;;;;17.38;58.46;100413.44;5043540;28;8850;-65
2022/06/02 08:10:01;;;;;;;;;7.40;6.20;;;;;17.38;58.31;100415.31;5052144;28;8852;-65
2022/06/02 08:12:29;;;;;;;;;3.40;3.00;;;;;17.28;58.37;100417.19;5052818;28;8956;-66
2022/06/02 08:14:57;;;;;;;;;7.40;7.40;;;;;17.10;59.07;100425.22;5056489;28;8838;-66
2022/06/02 08:17:29;;;;;;;;;7.40;7.00;;;;;16.93;59.44;100419.84;5050521;28;8837;-66
2022/06/02 08:19:57;;;;;;;;;6.40;4.40;;;;;16.74;59.63;100420.78;5056415;28;8834;-66
2022/06/02 08:22:25;;;;;;;;;7.00;6.00;;;;;16.57;60.08;100428.81;5055569;28;8883;-66
2022/06/02 08:24:54;;;;;;;;;3.00;3.00;;;;;16.47;60.08;100431.53;5056207;28;8834;-66
2022/06/02 08:27:22;;;;;;;;;7.00;4.80;;;;;16.52;60.09;100431.94;5052998;28;8941;-66
2022/06/02 08:29:53;;;;;;;;;8.50;7.50;;;;;16.76;59.89;100428.69;5056066;28;8832;-66
2022/06/02 08:32:21;;;;;;;;;7.00;6.25;;;;;17.00;59.22;100424.47;5041610;28;8833;-65
2022/06/02 08:34:49;;;;;;;;;8.50;7.50;;;;;17.29;58.49;100421.56;5040563;28;8911;-65
2022/06/02 08:37:17;;;;;;;;;7.80;7.00;;;;;17.61;57.93;100416.53;5043486;28;8953;-70
2022/06/02 08:39:44;;;;;;;;;7.00;5.60;;;;;17.87;57.23;100415.59;5044686;28;8836;-65
2022/06/02 08:42:12;;;;;;;;;6.00;6.00;;;;;18.08;56.97;100412.53;5035508;28;8971;-66
2022/06/02 08:44:40;;;;;;;;;8.20;8.20;;;;;18.30;56.26;100415.56;5034590;28;9583;-65
2022/06/02 08:47:07;;;;;;;;;6.00;6.00;;;;;18.54;56.00;100407.63;5035260;28;8852;-65
2022/06/02 08:49:35;;;;;;;;;9.20;6.40;;;;;18.75;55.77;100408.03;5034808;28;8852;-65
2022/06/02 08:52:04;;;;;;;;;7.00;7.00;;;;;18.86;55.55;100418.56;5034879;28;8852;-65
2022/06/02 08:54:32;;;;;;;;;7.00;7.00;;;;;18.83;55.72;100423.44;5034607;28;8868;-65
2022/06/02 08:57:00;;;;;;;;;7.40;7.00;;;;;18.75;55.80;100416.13;5035221;28;8859;-65
2022/06/02 08:59:29;;;;;;;;;6.00;5.60;;;;;18.62;56.20;100421.16;5036199;28;8841;-64
2022/06/02 09:01:58;;;;;;;;;9.00;7.80;;;;;18.41;56.79;100423.41;5035713;28;8867;-64
2022/06/02 09:04:26;;;;;;;;;9.00;9.00;;;;;18.21;57.25;100427.28;5036134;28;8848;-64
2022/06/02 09:06:53;;;;;;;;;8.60;8.60;;;;;18.00;57.60;100424.09;5035141;28;8910;-64
2022/06/02 09:09:26;;;;;;;;;6.00;6.00;;;;;17.97;57.33;100432.50;5041957;28;8860;-64
2022/06/02 09:11:53;;;;;;;;;6.00;5.60;;;;;18.16;57.47;100423.38;5055413;28;9541;-64
2022/06/02 09:14:21;;;;;;;;;8.40;7.80;;;;;18.38;57.01;100428.25;5055365;28;9548;-65
2022/06/02 09:16:49;;;;;;;;;8.20;7.40;;;;;18.57;56.13;100428.00;5042831;28;8986;-64
2022/06/02 09:19:17;;;;;;;;;8.60;7.80;;;;;18.74;55.81;100424.41;5036363;28;8870;-64
2022/06/02 09:21:45;;;;;;;;;7.00;6.00;;;;;18.92;55.84;100427.84;5036115;28;8836;-64
2022/06/02 09:24:13;;;;;;;;;8.00;8.00;;;;;19.14;55.33;100425.41;5051557;28;8842;-64
2022/06/02 09:26:41;;;;;;;;;7.00;7.00;;;;;19.38;54.86;100433.59;5055654;28;8823;-64
2022/06/02 09:29:09;;;;;;;;;7.80;7.80;;;;;19.61;53.91;100431.94;5055183;28;9003;-64
2022/06/02 09:31:36;;;;;;;;;7.40;7.40;;;;;19.80;53.93;100431.59;5040613;28;8819;-63
2022/06/02 09:34:18;;;;;;;;;6.60;6.00;;;;;20.03;53.42;100432.59;5036981;28;8859;-63
2022/06/02 09:36:46;;;;;;;;;5.40;5.40;;;;;20.27;52.72;100429.94;5044171;28;8825;-64
2022/06/02 09:39:15;;;;;;;;;8.00;7.00;;;;;20.47;52.64;100416.84;5035105;28;9800;-64
2022/06/02 09:41:43;;;;;;;;;8.40;8.40;;;;;20.58;52.20;100425.44;5035173;28;8866;-64
2022/06/02 09:44:10;;;;;;;;;7.80;7.00;;;;;20.71;51.98;100412.19;5036267;28;9010;-64
2022/06/02 09:46:38;;;;;;;;;8.60;8.60;;;;;20.85;52.07;100420.44;5036039;28;8848;-64
2022/06/02 09:49:15;;;;;;;;;10.40;10.00;;;;;21.03;51.41;100418.34;5035119;28;8879;-64
2022/06/02 09:51:42;;;;;;;;;9.80;9.80;;;;;21.21;51.30;100426.22;5035118;28;8844;-63
2022/06/02 09:54:10;;;;;;;;;8.60;8.20;;;;;21.15;51.47;100432.34;5036420;28;8951;-65
2022/06/02 09:56:38;;;;;;;;;6.20;5.80;;;;;20.96;51.99;100435.50;5035707;28;8971;-64
2022/06/02 09:59:07;;;;;;;;;9.40;9.40;;;;;20.93;51.84;100436.69;5034578;28;8999;-64
2022/06/02 10:01:36;;;;;;;;;12.00;11.60;;;;;21.36;51.63;100428.00;5035826;28;8856;-65
2022/06/02 10:04:03;;;;;;;;;10.20;8.80;;;;;21.83;49.86;100425.13;5034622;28;8852;-64
2022/06/02 10:06:31;;;;;;;;;7.00;7.00;;;;;21.98;50.19;100428.72;5047383;28;9480;-64
2022/06/02 10:09:01;;;;;;;;;8.20;8.20;;;;;22.06;49.81;100434.06;5050011;28;8867;-64
2022/06/02 10:11:35;;;;;;;;;10.60;9.40;;;;;22.46;49.62;100426.41;5035158;28;8875;-64
2022/06/02 10:14:03;;;;;;;;;10.80;10.40;;;;;22.86;48.69;100422.41;5050019;28;8854;-65
2022/06/02 10:16:30;;;;;;;;;11.00;9.00;;;;;23.30;48.17;100436.78;5053157;28;8858;-64
2022/06/02 10:18:59;;;;;;;;;8.60;8.60;;;;;23.74;47.57;100434.78;5033328;28;8837;-66
2022/06/02 10:21:27;;;;;;;;;9.20;9.20;;;;;24.19;46.10;100424.31;5044780;28;8814;-65
2022/06/02 10:24:02;;;;;;;;;8.60;8.60;;;;;24.61;46.05;100428.84;5053851;28;8864;-64
2022/06/02 10:26:31;;;;;;;;;9.00;9.00;;;;;25.03;45.54;100423.22;5053937;28;8826;-65
2022/06/02 10:28:59;;;;;;;;;5.60;5.60;;;;;25.38;44.75;100420.22;5053769;28;8861;-64
2022/06/02 10:31:27;;;;;;;;;10.00;10.00;;;;;25.69;44.73;100421.38;5054361;28;8956;-65
2022/06/02 10:33:55;;;;;;;;;9.40;8.60;;;;;25.99;44.33;100421.84;5053697;28;8846;-65
2022/06/02 10:36:23;;;;;;;;;10.00;9.00;;;;;26.27;44.26;100414.28;5054010;28;8838;-64
2022/06/02 10:38:51;;;;;;;;;6.80;6.80;;;;;26.52;43.61;100418.91;5053307;28;8911;-64
2022/06/02 10:41:20;;;;;;;;;9.00;7.60;;;;;26.65;43.34;100424.31;5053108;28;8849;-65
2022/06/02 10:43:48;;;;;;;;;6.40;6.40;;;;;26.79;43.60;100425.97;5052736;28;8866;-65
2022/06/02 10:46:15;;;;;;;;;6.80;6.40;;;;;27.04;42.55;100418.78;5052051;28;8858;-65
2022/06/02 10:48:44;;;;;;;;;7.80;7.40;;;;;27.23;43.21;100423.34;5052121;28;8834;-65
2022/06/02 10:51:12;;;;;;;;;7.00;6.60;;;;;27.52;42.13;100416.44;5042135;28;8820;-65
2022/06/02 10:53:40;;;;;;;;;6.00;6.00;;;;;27.67;42.28;100420.56;5033035;28;8840;-65
2022/06/02 10:56:08;;;;;;;;;9.00;8.80;;;;;27.69;42.02;100412.97;5032824;28;8866;-65
2022/06/02 10:58:36;;;;;;;;;6.80;6.80;;;;;27.63;41.83;100416.56;5032555;28;8840;-64
2022/06/02 11:01:04;;;;;;;;;7.00;6.00;;;;;27.86;41.59;100414.13;5033324;28;10091;-69
2022/06/02 11:03:32;;;;;;;;;8.60;8.00;;;;;28.10;41.32;100410.59;5032475;28;8856;-65
2022/06/02 11:06:00;;;;;;;;;8.00;8.00;;;;;28.38;40.88;100402.78;5033201;28;8836;-65
2022/06/02 11:08:28;;;;;;;;;8.00;8.00;;;;;28.59;40.63;100405.09;5032602;28;9012;-64
2022/06/02 11:10:56;;;;;;;;;9.80;9.60;;;;;28.82;40.24;100396.22;5032430;28;8836;-65
2022/06/02 11:13:23;;;;;;;;;7.60;6.80;;;;;29.10;40.21;100402.84;5032759;28;8844;-65
2022/06/02 11:15:52;;;;;;;;;6.00;6.00;;;;;29.38;39.40;100389.41;5033488;28;8869;-66
2022/06/02 11:18:20;;;;;;;;;9.60;9.20;;;;;29.73;39.11;100389.53;5033820;28;8863;-64
2022/06/02 11:20:49;;;;;;;;;8.00;8.00;;;;;29.93;38.75;100390.06;5034208;28;8835;-65
2022/06/02 11:23:16;;;;;;;;;9.20;8.40;;;;;30.07;39.04;100389.66;5033313;28;8943;-66
2022/06/02 11:25:51;;;;;;;;;8.80;8.20;;;;;30.14;37.78;100382.13;5032171;28;8867;-65
2022/06/02 11:28:19;;;;;;;;;8.60;8.00;;;;;29.54;39.35;100382.44;5031805;28;8836;-70
2022/06/02 11:30:47;;;;;;;;;7.60;7.00;;;;;29.34;39.59;100381.84;5033845;28;8867;-65
2022/06/02 11:33:15;;;;;;;;;9.60;9.40;;;;;29.44;39.55;100374.72;5032757;28;8891;-68
2022/06/02 11:35:43;;;;;;;;;6.20;6.20;;;;;29.68;38.87;100371.03;5032278;28;8844;-65
2022/06/02 11:38:10;;;;;;;;;8.20;7.80;;;;;29.63;39.15;100370.88;5031780;28;8852;-66
2022/06/02 11:40:41;;;;;;;;;8.20;8.20;;;;;29.43;39.48;100374.97;5032980;28;8914;-65